Time;durP1;ratioP1;P1;durP2;ratioP2;P2;SDS_P1;SDS_P2;PMS_P1;PMS_P2;Temp;Humidity;BMP_temperature;BMP_pressure;BME280_temperature;BME280_humidity;BME280_pressure;Samples;Min_cycle;Max_cycle;Signal;HPM_P1;HPM_P2
2021/12/14 05:02:58;;;;;;;12.10;10.45;;;8.60;99.90;;;;;;4951055;28;20399;-71
2021/12/14 05:05:33;;;;;;;10.02;9.07;;;8.60;99.90;;;;;;4954584;28;20205;-70
2021/12/14 05:10:52;;;;;;;16.52;10.38;;;8.60;99.90;;;;;;4926133;28;20267;-70
2021/12/14 05:13:23;;;;;;;13.98;10.13;;;8.60;99.90;;;;;;4972909;28;20208;-71
2021/12/14 05:15:50;;;;;;;12.30;10.55;;;8.60;99.90;;;;;;4970140;28;20271;-70
2021/12/14 05:18:18;;;;;;;14.70;11.15;;;8.60;99.90;;;;;;4972987;28;20232;-70
2021/12/14 05:20:48;;;;;;;12.43;8.80;;;8.60;99.90;;;;;;4973001;28;20229;-70
2021/12/14 05:23:21;;;;;;;15.23;10.23;;;8.60;99.90;;;;;;4986465;23;20224;-69
2021/12/14 05:25:48;;;;;;;12.27;9.93;;;8.60;99.90;;;;;;4972955;28;20232;-69
2021/12/14 05:28:16;;;;;;;13.30;11.13;;;8.60;99.90;;;;;;4972662;28;20205;-70
2021/12/14 05:30:45;;;;;;;15.65;10.85;;;8.60;99.90;;;;;;4972605;28;20215;-70
2021/12/14 05:33:16;;;;;;;13.27;9.98;;;8.60;99.90;;;;;;4972726;28;20263;-69
2021/12/14 05:35:47;;;;;;;13.77;10.95;;;8.60;99.90;;;;;;4972962;28;20212;-70
2021/12/14 05:38:18;;;;;;;12.02;10.43;;;8.60;99.90;;;;;;4971050;28;20225;-69
2021/12/14 05:40:57;;;;;;;12.52;10.70;;;8.50;99.90;;;;;;4971620;28;20208;-69
2021/12/14 05:43:27;;;;;;;13.88;10.40;;;8.50;99.90;;;;;;4967421;28;20232;-70
2021/12/14 05:45:56;;;;;;;14.63;10.23;;;8.50;99.90;;;;;;4972140;28;20291;-67
2021/12/14 05:48:26;;;;;;;11.32;10.10;;;8.50;99.90;;;;;;4973000;28;20212;-68
2021/12/14 05:50:56;;;;;;;12.57;10.43;;;8.50;99.90;;;;;;4971575;28;20239;-70
2021/12/14 05:53:28;;;;;;;11.05;9.88;;;8.50;99.90;;;;;;4971997;28;20658;-68
2021/12/14 05:55:59;;;;;;;15.75;11.80;;;8.50;99.90;;;;;;4967226;28;20205;-69
2021/12/14 05:58:27;;;;;;;15.43;11.27;;;8.50;99.90;;;;;;4953348;28;20243;-68
2021/12/14 06:00:58;;;;;;;14.82;10.32;;;8.50;99.90;;;;;;4969568;28;20224;-68
2021/12/14 06:03:28;;;;;;;13.13;9.90;;;8.50;99.90;;;;;;4972385;28;20236;-68
2021/12/14 06:06:00;;;;;;;14.65;10.90;;;8.50;99.90;;;;;;4972154;28;20221;-69
2021/12/14 06:08:29;;;;;;;16.63;10.70;;;8.40;99.90;;;;;;4972142;28;20228;-67
2021/12/14 06:10:57;;;;;;;16.33;10.70;;;8.40;99.90;;;;;;4963066;28;20209;-68
2021/12/14 06:13:35;;;;;;;12.32;10.35;;;8.40;99.90;;;;;;4966372;28;20306;-70
2021/12/14 06:16:02;;;;;;;12.13;9.93;;;8.50;99.90;;;;;;4972626;28;20228;-70
2021/12/14 06:18:29;;;;;;;13.82;11.27;;;8.50;99.90;;;;;;4972327;28;20232;-69
2021/12/14 06:20:57;;;;;;;14.98;11.52;;;8.50;99.90;;;;;;4972029;28;20274;-69
2021/12/14 06:23:25;;;;;;;22.17;12.02;;;8.40;99.90;;;;;;4968831;28;20246;-69
2021/12/14 06:25:52;;;;;;;14.18;10.88;;;8.40;99.90;;;;;;4964441;28;20200;-69
2021/12/14 06:28:24;;;;;;;16.05;12.15;;;8.40;99.90;;;;;;4967267;28;20204;-69
2021/12/14 06:30:50;;;;;;;13.18;11.00;;;8.40;99.90;;;;;;4966674;28;20240;-68
2021/12/14 06:33:17;;;;;;;15.93;11.50;;;8.40;99.90;;;;;;4971604;28;20228;-68
2021/12/14 06:35:47;;;;;;;14.73;11.82;;;8.40;99.90;;;;;;4971411;28;20204;-69
2021/12/14 06:38:27;;;;;;;12.82;10.30;;;8.40;99.90;;;;;;4970742;28;20227;-69
2021/12/14 06:41:00;;;;;;;15.20;10.77;;;8.40;99.90;;;;;;4963072;28;20307;-69
2021/12/14 06:43:28;;;;;;;18.20;11.85;;;8.40;99.90;;;;;;4971103;28;20228;-68
2021/12/14 06:45:58;;;;;;;18.75;11.40;;;8.40;99.90;;;;;;4971604;28;20670;-70
2021/12/14 06:48:30;;;;;;;13.88;10.77;;;8.40;99.90;;;;;;4963361;28;20666;-71
2021/12/14 06:51:00;;;;;;;13.20;10.40;;;8.40;99.90;;;;;;4971318;28;20200;-70
2021/12/14 06:53:28;;;;;;;16.23;11.63;;;8.40;99.90;;;;;;4960413;28;20225;-70
2021/12/14 06:55:58;;;;;;;17.13;13.10;;;8.40;99.90;;;;;;4964330;28;20574;-71
2021/12/14 06:58:27;;;;;;;17.73;11.18;;;8.40;99.90;;;;;;4970815;28;20212;-70
2021/12/14 07:01:00;;;;;;;16.92;12.73;;;8.40;99.90;;;;;;4959823;28;20216;-70
2021/12/14 07:03:45;;;;;;;14.45;10.45;;;8.40;99.90;;;;;;4966800;28;20244;-69
2021/12/14 07:06:14;;;;;;;17.85;12.30;;;8.40;99.90;;;;;;4971655;28;20619;-70
2021/12/14 07:08:42;;;;;;;15.80;11.82;;;8.40;99.90;;;;;;4970795;28;20223;-70
2021/12/14 07:11:09;;;;;;;16.63;11.88;;;8.50;99.90;;;;;;4970469;28;20227;-69
2021/12/14 07:13:39;;;;;;;16.30;12.30;;;8.40;99.90;;;;;;4971181;28;20228;-69
2021/12/14 07:16:19;;;;;;;15.23;11.38;;;8.40;99.90;;;;;;4969063;28;20884;-69
2021/12/14 07:18:50;;;;;;;15.75;10.77;;;8.50;99.90;;;;;;4963016;28;20233;-69
2021/12/14 07:21:35;;;;;;;15.23;11.10;;;8.40;99.90;;;;;;4968259;28;20207;-69
2021/12/14 07:24:30;;;;;;;14.02;10.25;;;8.50;99.90;;;;;;4966159;28;20275;-70
2021/12/14 07:27:16;;;;;;;18.13;12.95;;;8.40;99.90;;;;;;4962373;28;20227;-71
2021/12/14 07:29:43;;;;;;;18.38;12.82;;;8.50;99.90;;;;;;4961412;28;20213;-69
2021/12/14 07:32:10;;;;;;;16.40;11.88;;;8.40;99.90;;;;;;4957792;28;20575;-71
2021/12/14 07:34:37;;;;;;;15.40;12.13;;;8.40;99.90;;;;;;4960016;28;20621;-69
2021/12/14 07:37:04;;;;;;;17.23;12.65;;;8.40;99.90;;;;;;4970198;28;20205;-69
2021/12/14 07:39:32;;;;;;;17.52;12.32;;;8.40;99.90;;;;;;4969810;28;20260;-70
2021/12/14 07:42:01;;;;;;;18.83;12.77;;;8.40;99.90;;;;;;4970652;28;20235;-69
2021/12/14 07:44:32;;;;;;;14.55;11.52;;;8.40;99.90;;;;;;4957065;28;20550;-69
2021/12/14 07:47:04;;;;;;;17.38;12.13;;;8.40;99.90;;;;;;4969980;28;20231;-69
2021/12/14 07:49:33;;;;;;;18.00;12.65;;;8.40;99.90;;;;;;4953587;28;20212;-72
2021/12/14 07:52:04;;;;;;;62.38;36.35;;;8.40;99.90;;;;;;4967469;28;20259;-69
2021/12/14 07:54:37;;;;;;;51.17;24.73;;;8.40;99.90;;;;;;4962597;28;20215;-70
2021/12/14 07:57:07;;;;;;;16.38;13.40;;;8.40;99.90;;;;;;4967839;28;20224;-70
2021/12/14 07:59:37;;;;;;;42.63;24.67;;;8.40;99.90;;;;;;4964826;28;20209;-70
2021/12/14 08:02:14;;;;;;;22.45;14.15;;;8.40;99.90;;;;;;4965042;28;20224;-69
2021/12/14 08:04:43;;;;;;;27.60;14.27;;;8.50;99.90;;;;;;4959366;28;20204;-69
2021/12/14 08:07:09;;;;;;;20.65;12.75;;;8.50;99.90;;;;;;4966635;28;20567;-69
2021/12/14 08:09:47;;;;;;;18.15;15.15;;;8.50;99.90;;;;;;4969902;28;20670;-70
2021/12/14 08:12:30;;;;;;;19.23;13.05;;;8.50;99.90;;;;;;4971184;28;20256;-71
2021/12/14 08:15:17;;;;;;;18.80;11.80;;;8.50;99.90;;;;;;4964412;28;20269;-70
2021/12/14 08:17:46;;;;;;;14.45;11.70;;;8.50;99.90;;;;;;4963914;28;20622;-70
2021/12/14 08:20:20;;;;;;;16.60;12.43;;;8.50;99.90;;;;;;4962142;28;20723;-70
2021/12/14 08:22:48;;;;;;;16.38;12.25;;;8.50;99.90;;;;;;4973214;28;20251;-69
2021/12/14 08:25:22;;;;;;;18.35;11.70;;;8.50;99.90;;;;;;4969708;28;20248;-70
2021/12/14 08:28:00;;;;;;;17.23;12.93;;;8.60;99.90;;;;;;4968526;28;20200;-71
2021/12/14 08:30:27;;;;;;;18.80;13.25;;;8.60;99.90;;;;;;4965669;28;20209;-70
2021/12/14 08:32:54;;;;;;;13.95;11.02;;;8.60;99.90;;;;;;4969377;28;20735;-70
2021/12/14 08:35:22;;;;;;;16.73;11.40;;;8.60;99.90;;;;;;4970226;28;20259;-70
2021/12/14 08:37:54;;;;;;;20.33;12.77;;;8.60;99.90;;;;;;4970282;28;20208;-70
2021/12/14 08:40:28;;;;;;;19.40;12.70;;;8.70;99.90;;;;;;4973654;28;20606;-71
2021/12/14 08:43:02;;;;;;;23.17;13.65;;;8.70;99.90;;;;;;4973643;28;20315;-70
2021/12/14 08:45:33;;;;;;;22.48;14.07;;;8.70;99.90;;;;;;4974095;28;20212;-71
2021/12/14 08:48:09;;;;;;;22.30;13.50;;;8.70;99.90;;;;;;4973665;28;20205;-70
2021/12/14 08:50:40;;;;;;;15.55;11.93;;;8.70;99.90;;;;;;4973590;28;20228;-70
2021/12/14 08:53:10;;;;;;;20.13;14.45;;;8.70;99.90;;;;;;4973047;28;20319;-72
2021/12/14 08:55:43;;;;;;;19.35;13.00;;;8.80;99.90;;;;;;4971966;28;20216;-71
2021/12/14 08:58:11;;;;;;;19.35;13.65;;;8.80;99.90;;;;;;4969877;28;20569;-71
2021/12/14 09:00:44;;;;;;;19.55;13.32;;;8.80;99.90;;;;;;4954113;28;20241;-70
2021/12/14 09:03:14;;;;;;;17.52;13.75;;;8.80;99.90;;;;;;4955271;28;20710;-70
2021/12/14 09:05:46;;;;;;;19.48;14.27;;;8.80;99.90;;;;;;4973681;28;20208;-70
2021/12/14 09:08:13;;;;;;;21.23;14.57;;;8.80;99.90;;;;;;4973109;28;20193;-70
2021/12/14 09:10:45;;;;;;;20.27;13.90;;;8.80;99.90;;;;;;4968842;28;20206;-70
2021/12/14 09:13:14;;;;;;;17.67;12.60;;;8.80;99.90;;;;;;4972066;28;20235;-71
2021/12/14 09:15:43;;;;;;;20.55;13.05;;;8.80;99.90;;;;;;4954094;28;20213;-70
2021/12/14 09:18:13;;;;;;;20.70;13.15;;;8.90;99.90;;;;;;4954174;28;20205;-70
2021/12/14 09:20:43;;;;;;;20.60;13.65;;;8.90;99.90;;;;;;4953799;29;20232;-70
2021/12/14 09:23:16;;;;;;;23.15;15.25;;;8.90;99.90;;;;;;4953740;28;20249;-70
2021/12/14 09:25:46;;;;;;;21.65;13.98;;;8.90;99.90;;;;;;4973268;28;20295;-68
2021/12/14 09:28:14;;;;;;;20.75;13.77;;;8.90;99.90;;;;;;4972943;28;20223;-68
2021/12/14 09:30:44;;;;;;;24.83;15.93;;;8.90;99.90;;;;;;4973060;28;20584;-68
2021/12/14 09:33:12;;;;;;;22.75;14.77;;;8.90;99.90;;;;;;4972371;28;20224;-70
2021/12/14 09:35:40;;;;;;;27.73;15.98;;;8.90;99.90;;;;;;4973107;28;20556;-69
2021/12/14 09:38:14;;;;;;;24.35;17.10;;;8.90;99.90;;;;;;4972224;28;20587;-69
2021/12/14 09:40:47;;;;;;;22.23;14.85;;;8.90;99.90;;;;;;4972492;28;20701;-69
2021/12/14 09:43:14;;;;;;;29.73;18.05;;;8.90;99.90;;;;;;4972605;28;20243;-69
2021/12/14 09:45:44;;;;;;;31.23;16.10;;;8.90;99.90;;;;;;4968825;28;20209;-69
2021/12/14 09:48:13;;;;;;;23.75;16.50;;;8.90;99.90;;;;;;4968909;28;20205;-70
2021/12/14 09:50:41;;;;;;;22.90;15.90;;;8.90;99.90;;;;;;4972360;28;20212;-70
2021/12/14 09:53:11;;;;;;;22.90;16.67;;;8.90;99.90;;;;;;4972138;28;20236;-70
2021/12/14 09:55:41;;;;;;;22.90;15.20;;;8.90;99.90;;;;;;4972720;28;20216;-70
2021/12/14 09:58:12;;;;;;;27.67;17.15;;;9.00;99.90;;;;;;4972712;28;20219;-70
2021/12/14 10:00:43;;;;;;;29.17;17.58;;;9.00;99.90;;;;;;4972567;28;20240;-71
2021/12/14 10:03:11;;;;;;;24.55;17.65;;;9.00;99.90;;;;;;4972304;28;20232;-70
2021/12/14 10:05:46;;;;;;;28.15;16.77;;;9.10;99.90;;;;;;4971972;28;20212;-70
2021/12/14 10:08:17;;;;;;;32.47;18.73;;;9.10;99.90;;;;;;4972040;28;20208;-71
2021/12/14 10:10:47;;;;;;;27.80;17.67;;;9.10;99.90;;;;;;4972485;28;20195;-71
2021/12/14 10:13:16;;;;;;;25.38;17.10;;;9.10;99.90;;;;;;4972453;28;20609;-68
2021/12/14 10:15:47;;;;;;;26.20;15.80;;;9.20;99.90;;;;;;4961562;28;20211;-69
2021/12/14 10:18:16;;;;;;;32.17;19.65;;;9.20;99.90;;;;;;4972033;28;20645;-69
2021/12/14 10:20:47;;;;;;;30.23;19.45;;;9.20;99.90;;;;;;4971803;28;20224;-69
2021/12/14 10:23:17;;;;;;;27.90;18.42;;;9.30;99.90;;;;;;4971923;28;20626;-68
2021/12/14 10:25:45;;;;;;;27.83;16.77;;;9.30;99.90;;;;;;4952763;28;20671;-69
2021/12/14 10:28:13;;;;;;;24.52;17.23;;;9.30;99.90;;;;;;4952491;28;20221;-69
2021/12/14 10:30:45;;;;;;;27.50;18.73;;;9.40;99.90;;;;;;4952936;28;20205;-71
2021/12/14 10:33:13;;;;;;;27.23;17.05;;;9.40;99.90;;;;;;4953234;28;20240;-71
2021/12/14 10:35:47;;;;;;;24.13;16.60;;;9.40;99.90;;;;;;4952849;28;20216;-70
2021/12/14 10:38:28;;;;;;;27.67;17.88;;;9.40;99.90;;;;;;4952624;28;20312;-70
2021/12/14 10:43:42;;;;;;;26.98;16.13;;;9.30;99.90;;;;;;4954961;28;20229;-70
2021/12/14 10:46:15;;;;;;;24.10;18.40;;;9.30;99.90;;;;;;4971923;28;20210;-69
2021/12/14 10:48:46;;;;;;;29.15;18.23;;;9.30;99.90;;;;;;4971819;28;20212;-70
2021/12/14 10:51:18;;;;;;;27.55;16.92;;;9.30;99.90;;;;;;4971533;28;20189;-69
2021/12/14 10:53:47;;;;;;;28.95;17.77;;;9.30;99.90;;;;;;4971505;28;20685;-70
2021/12/14 10:56:17;;;;;;;26.10;18.27;;;9.30;99.90;;;;;;4971764;28;20204;-70
2021/12/14 10:58:47;;;;;;;25.75;18.63;;;9.20;99.90;;;;;;4973781;28;20208;-70
2021/12/14 11:01:19;;;;;;;28.23;19.88;;;9.20;99.90;;;;;;4971535;28;20835;-68
2021/12/14 11:03:49;;;;;;;28.15;18.50;;;9.20;99.90;;;;;;4972144;28;20232;-70
2021/12/14 11:06:21;;;;;;;23.85;17.77;;;9.20;99.90;;;;;;4971615;28;20213;-68
2021/12/14 11:09:01;;;;;;;29.60;18.98;;;9.10;99.90;;;;;;4971474;28;20255;-70
2021/12/14 11:11:33;;;;;;;30.67;18.55;;;9.10;99.90;;;;;;4970923;28;20215;-68
2021/12/14 11:14:03;;;;;;;28.30;19.55;;;9.10;99.90;;;;;;4971064;28;20717;-72
2021/12/14 11:18:09;;;;;;;41.95;25.92;;;9.10;99.90;;;;;;4971143;28;20217;-70
2021/12/14 11:19:32;;;;;;;29.85;19.80;;;9.00;99.90;;;;;;4968946;28;20201;-71
2021/12/14 11:22:18;;;;;;;30.75;20.13;;;9.10;99.90;;;;;;4965826;28;20236;-69
2021/12/14 11:24:48;;;;;;;31.80;22.35;;;9.10;99.90;;;;;;4970362;28;20204;-71
2021/12/14 11:27:19;;;;;;;31.20;20.38;;;9.00;99.90;;;;;;4971275;28;20220;-70
2021/12/14 11:29:51;;;;;;;29.20;19.52;;;9.00;99.90;;;;;;4971097;28;20215;-70
2021/12/14 11:32:24;;;;;;;31.27;20.95;;;9.00;99.90;;;;;;4971555;28;20232;-67
2021/12/14 11:34:51;;;;;;;34.35;21.58;;;9.00;99.90;;;;;;4971501;28;20216;-70
2021/12/14 11:37:23;;;;;;;34.55;22.40;;;9.00;99.90;;;;;;4971031;28;20605;-68
2021/12/14 11:39:54;;;;;;;33.10;21.25;;;9.00;99.90;;;;;;4972107;28;20208;-68
2021/12/14 11:42:24;;;;;;;27.45;18.92;;;9.00;99.90;;;;;;4974896;28;20232;-68
2021/12/14 11:44:54;;;;;;;29.73;19.73;;;9.00;99.90;;;;;;4974556;28;20357;-69
2021/12/14 11:50:14;;;;;;;32.60;20.10;;;9.00;99.90;;;;;;4974429;28;20197;-68
2021/12/14 11:52:51;;;;;;;34.58;20.02;;;9.00;99.90;;;;;;4974435;28;20232;-69
2021/12/14 11:55:24;;;;;;;36.92;22.58;;;9.00;99.90;;;;;;4974360;28;20231;-70
2021/12/14 11:58:02;;;;;;;33.55;19.85;;;9.00;99.90;;;;;;4974638;28;20208;-69
2021/12/14 12:00:30;;;;;;;38.13;20.83;;;9.00;99.90;;;;;;4974987;28;20248;-69
2021/12/14 12:02:58;;;;;;;32.53;20.38;;;9.00;99.90;;;;;;4974935;28;20236;-68
2021/12/14 12:05:30;;;;;;;35.92;21.60;;;9.00;99.90;;;;;;4974404;28;20216;-69
2021/12/14 12:10:54;;;;;;;37.20;21.60;;;9.00;99.90;;;;;;4974288;28;20200;-70
2021/12/14 12:13:34;;;;;;;33.70;22.67;;;9.00;99.90;;;;;;4974116;28;20232;-69
2021/12/14 12:16:10;;;;;;;42.55;23.48;;;9.00;99.90;;;;;;4955048;28;20205;-69
2021/12/14 12:18:38;;;;;;;41.72;23.60;;;9.00;99.90;;;;;;4972578;28;20198;-69
2021/12/14 12:21:05;;;;;;;35.13;20.42;;;9.00;99.90;;;;;;4973695;28;20221;-69
2021/12/14 12:23:34;;;;;;;39.00;23.98;;;9.00;99.90;;;;;;4972639;28;20255;-70
2021/12/14 12:26:09;;;;;;;36.05;21.13;;;9.00;99.90;;;;;;4970808;28;20213;-69
2021/12/14 12:28:38;;;;;;;39.50;23.30;;;9.00;99.90;;;;;;4974311;28;20258;-69
2021/12/14 12:31:11;;;;;;;34.63;22.30;;;9.00;99.90;;;;;;4973890;28;20299;-69
2021/12/14 12:33:42;;;;;;;39.15;23.40;;;9.00;99.90;;;;;;4973908;28;20328;-70
2021/12/14 12:36:11;;;;;;;40.78;23.73;;;9.00;99.90;;;;;;4954466;28;20209;-70
2021/12/14 12:38:42;;;;;;;41.20;22.05;;;9.00;99.90;;;;;;4954352;28;20224;-69
2021/12/14 12:41:17;;;;;;;40.42;24.00;;;9.00;99.90;;;;;;4954153;28;20229;-69
2021/12/14 12:43:49;;;;;;;41.50;24.20;;;9.00;99.90;;;;;;4954733;28;20761;-69
2021/12/14 12:46:21;;;;;;;42.58;23.40;;;9.00;99.90;;;;;;4974162;28;20569;-70
2021/12/14 12:48:59;;;;;;;40.67;22.75;;;9.00;99.90;;;;;;4974126;28;20216;-70
2021/12/14 12:52:02;;;;;;;42.72;24.08;;;9.00;99.90;;;;;;4973398;28;20208;-70
2021/12/14 12:54:51;;;;;;;43.22;23.52;;;9.00;99.90;;;;;;4973802;28;20215;-69
2021/12/14 12:57:40;;;;;;;44.75;24.95;;;9.00;99.90;;;;;;4973713;28;20213;-69
2021/12/14 13:00:30;;;;;;;44.58;24.25;;;9.00;99.90;;;;;;4973315;28;20205;-69
2021/12/14 13:03:01;;;;;;;40.63;23.25;;;9.00;99.90;;;;;;4973810;28;20233;-70
2021/12/14 13:05:35;;;;;;;46.65;24.50;;;9.00;99.90;;;;;;4973557;28;20208;-69
2021/12/14 13:08:10;;;;;;;46.08;24.38;;;9.00;99.90;;;;;;4973118;28;20302;-70
2021/12/14 13:10:41;;;;;;;43.08;23.13;;;9.10;99.90;;;;;;4972993;28;20208;-68
2021/12/14 13:13:12;;;;;;;47.67;24.33;;;9.00;99.90;;;;;;4971996;28;20300;-68
2021/12/14 13:15:48;;;;;;;46.25;23.35;;;9.10;99.90;;;;;;4973605;28;20197;-69
2021/12/14 13:18:25;;;;;;;38.30;24.00;;;9.10;99.90;;;;;;4973669;28;20207;-69
2021/12/14 13:20:57;;;;;;;44.85;24.90;;;9.10;99.90;;;;;;4972505;28;20209;-69
2021/12/14 13:23:39;;;;;;;37.40;22.95;;;9.10;99.90;;;;;;4972510;28;20236;-69
2021/12/14 13:26:21;;;;;;;43.25;24.17;;;9.10;99.90;;;;;;4961635;28;20208;-69
2021/12/14 13:28:48;;;;;;;39.30;24.02;;;9.00;99.90;;;;;;4964119;28;20235;-70
2021/12/14 13:31:25;;;;;;;41.92;23.35;;;9.00;99.90;;;;;;4972871;28;20548;-69
2021/12/14 13:33:52;;;;;;;45.67;25.30;;;9.00;99.90;;;;;;4972587;28;20220;-70
2021/12/14 13:36:20;;;;;;;37.80;22.50;;;9.00;99.90;;;;;;4972461;28;20567;-71
2021/12/14 13:38:47;;;;;;;42.85;23.05;;;9.00;99.90;;;;;;4965608;28;20208;-69
2021/12/14 13:41:26;;;;;;;39.15;23.48;;;9.00;99.90;;;;;;4972671;28;20315;-70
2021/12/14 13:43:53;;;;;;;45.47;26.40;;;9.00;99.90;;;;;;4972274;28;20247;-69
2021/12/14 13:46:20;;;;;;;41.72;24.17;;;9.00;99.90;;;;;;4969799;28;20223;-70
2021/12/14 13:48:47;;;;;;;43.28;24.58;;;9.00;99.90;;;;;;4972294;28;20200;-70
2021/12/14 13:51:17;;;;;;;43.08;23.60;;;9.00;99.90;;;;;;4961748;28;20655;-69
2021/12/14 13:53:47;;;;;;;41.92;23.90;;;9.00;99.90;;;;;;4958845;28;20609;-71
2021/12/14 13:56:18;;;;;;;48.35;24.58;;;9.00;99.90;;;;;;4972267;28;20212;-69
2021/12/14 13:58:46;;;;;;;46.53;23.77;;;9.00;99.90;;;;;;4971546;28;20209;-69
2021/12/14 14:01:16;;;;;;;41.75;24.52;;;9.00;99.90;;;;;;4966520;28;20342;-70
2021/12/14 14:03:47;;;;;;;41.30;23.05;;;9.00;99.90;;;;;;4959728;28;20229;-69
2021/12/14 14:06:17;;;;;;;45.88;24.58;;;8.90;99.90;;;;;;4959109;28;20235;-69
2021/12/14 14:08:49;;;;;;;42.65;22.92;;;8.90;99.90;;;;;;4972077;28;20299;-69
2021/12/14 14:11:21;;;;;;;41.05;22.40;;;9.00;99.90;;;;;;4958927;28;20240;-69
2021/12/14 14:13:48;;;;;;;38.10;22.33;;;9.00;99.90;;;;;;4959970;28;20232;-69
2021/12/14 14:16:15;;;;;;;37.20;22.15;;;9.00;99.90;;;;;;4970428;28;20559;-70
2021/12/14 14:18:45;;;;;;;40.53;23.75;;;8.90;99.90;;;;;;4961586;28;20212;-69
2021/12/14 14:21:15;;;;;;;38.10;20.90;;;8.90;99.90;;;;;;4970989;28;20622;-69
2021/12/14 14:23:43;;;;;;;40.50;21.65;;;8.90;99.90;;;;;;4964323;28;20248;-70
2021/12/14 14:26:16;;;;;;;36.92;22.35;;;8.90;99.90;;;;;;4972017;28;20637;-69
2021/12/14 14:28:47;;;;;;;41.30;22.60;;;8.90;99.90;;;;;;4971617;28;20577;-69
2021/12/14 14:31:18;;;;;;;40.95;22.30;;;9.00;99.90;;;;;;4971440;28;20200;-69
2021/12/14 14:33:51;;;;;;;41.72;22.40;;;9.00;99.90;;;;;;4969863;28;20236;-69
2021/12/14 14:36:35;;;;;;;39.35;22.05;;;9.00;99.90;;;;;;4971278;28;20209;-69
2021/12/14 14:39:09;;;;;;;39.28;22.17;;;8.90;99.90;;;;;;4970641;28;20209;-69
2021/12/14 14:41:42;;;;;;;37.95;21.00;;;8.90;99.90;;;;;;4970808;28;20216;-69
2021/12/14 14:44:13;;;;;;;38.83;22.00;;;8.90;99.90;;;;;;4970764;28;20196;-69
2021/12/14 14:47:16;;;;;;;35.78;21.23;;;8.90;99.90;;;;;;4970498;28;20223;-71
2021/12/14 14:50:01;;;;;;;40.30;21.98;;;8.90;99.90;;;;;;4971277;28;20303;-69
2021/12/14 14:52:31;;;;;;;38.05;20.50;;;8.90;99.90;;;;;;4970781;28;20227;-70
2021/12/14 14:55:02;;;;;;;42.22;23.48;;;8.90;99.90;;;;;;4972029;28;20247;-70
2021/12/14 14:57:51;;;;;;;33.38;21.80;;;9.00;99.90;;;;;;4971181;28;20571;-70
2021/12/14 15:00:24;;;;;;;36.30;22.10;;;9.00;99.90;;;;;;4964651;28;20212;-70
2021/12/14 15:02:53;;;;;;;44.83;24.33;;;8.90;99.90;;;;;;4971036;28;20225;-69
2021/12/14 15:05:31;;;;;;;44.15;24.77;;;8.90;99.90;;;;;;4971841;28;20216;-71
2021/12/14 15:08:02;;;;;;;45.25;24.30;;;8.90;99.90;;;;;;4969558;28;20583;-70
2021/12/14 15:10:37;;;;;;;48.53;23.67;;;8.90;99.90;;;;;;4971480;28;20208;-69
2021/12/14 15:13:26;;;;;;;47.03;24.48;;;8.90;99.90;;;;;;4970789;28;20224;-69
2021/12/14 15:16:03;;;;;;;42.42;25.63;;;8.90;99.90;;;;;;4972821;28;20299;-69
2021/12/14 15:19:02;;;;;;;43.55;23.27;;;8.90;99.90;;;;;;4963935;28;20215;-69
2021/12/14 15:22:07;;;;;;;42.55;24.13;;;8.90;99.90;;;;;;4952428;28;20232;-69
2021/12/14 15:24:54;;;;;;;42.60;23.77;;;8.90;99.90;;;;;;4974747;28;20214;-69
2021/12/14 15:27:28;;;;;;;55.10;28.40;;;8.90;99.90;;;;;;4974253;28;20294;-69
2021/12/14 15:30:25;;;;;;;45.60;23.55;;;8.90;99.90;;;;;;4973920;28;20208;-69
2021/12/14 15:33:15;;;;;;;50.53;26.00;;;8.90;99.90;;;;;;4973164;28;20231;-69
2021/12/14 15:35:51;;;;;;;48.55;25.15;;;8.90;99.90;;;;;;4972951;28;20213;-70
2021/12/14 15:38:28;;;;;;;55.25;27.58;;;8.90;99.90;;;;;;4972720;28;20604;-70
2021/12/14 15:41:02;;;;;;;47.60;26.48;;;8.80;99.90;;;;;;4974855;28;20231;-70
2021/12/14 15:43:31;;;;;;;47.15;24.77;;;8.80;99.90;;;;;;4974805;28;20235;-71
2021/12/14 15:46:02;;;;;;;57.70;29.50;;;8.80;99.90;;;;;;4974940;28;20196;-70
2021/12/14 15:48:40;;;;;;;51.35;26.83;;;8.80;99.90;;;;;;4973560;28;20212;-69
2021/12/14 15:51:12;;;;;;;55.00;28.38;;;8.80;99.90;;;;;;4970662;28;20580;-70
2021/12/14 15:53:40;;;;;;;49.60;26.35;;;8.80;99.90;;;;;;4973134;28;20232;-68
2021/12/14 15:56:26;;;;;;;49.25;24.35;;;8.80;99.90;;;;;;4973500;28;20571;-71
2021/12/14 15:58:58;;;;;;;56.72;27.15;;;8.80;99.90;;;;;;4970811;28;20220;-70
2021/12/14 16:01:30;;;;;;;46.83;24.15;;;8.80;99.90;;;;;;4968599;28;20212;-69
2021/12/14 16:03:59;;;;;;;51.03;25.30;;;8.80;99.90;;;;;;4968509;28;20775;-69
2021/12/14 16:06:25;;;;;;;48.95;24.63;;;8.80;99.90;;;;;;4967414;28;20211;-71
2021/12/14 16:08:53;;;;;;;40.42;25.33;;;8.80;99.90;;;;;;4970715;28;20550;-69
2021/12/14 16:11:33;;;;;;;47.63;25.70;;;8.80;99.90;;;;;;4972377;28;20224;-69
2021/12/14 16:16:49;;;;;;;45.88;23.70;;;8.80;99.90;;;;;;4973608;28;20271;-69
2021/12/14 16:19:21;;;;;;;54.50;27.35;;;8.80;99.90;;;;;;4965803;28;20209;-73
2021/12/14 16:21:48;;;;;;;62.10;33.45;;;8.80;99.90;;;;;;4969387;28;20819;-69
2021/12/14 16:24:15;;;;;;;56.88;27.75;;;8.80;99.90;;;;;;4965395;28;20291;-70
2021/12/14 16:26:42;;;;;;;57.25;29.25;;;8.80;99.90;;;;;;4968970;28;20296;-70
2021/12/14 16:29:09;;;;;;;60.33;26.00;;;8.80;99.90;;;;;;4974153;28;20208;-69
2021/12/14 16:31:40;;;;;;;47.92;26.15;;;8.80;99.90;;;;;;4968344;28;20211;-71
2021/12/14 16:34:11;;;;;;;62.08;27.55;;;8.80;99.90;;;;;;4971296;28;20669;-68
2021/12/14 16:36:42;;;;;;;54.10;28.90;;;8.80;99.90;;;;;;4974303;28;20219;-68
2021/12/14 16:39:11;;;;;;;51.97;26.98;;;8.90;99.90;;;;;;4971778;28;20243;-68
2021/12/14 16:41:41;;;;;;;55.22;28.77;;;8.80;99.90;;;;;;4970227;28;20295;-69
2021/12/14 16:44:12;;;;;;;52.50;25.98;;;8.90;99.90;;;;;;4971662;28;20231;-68
2021/12/14 16:46:42;;;;;;;51.22;24.50;;;8.90;99.90;;;;;;4971270;28;20590;-69
2021/12/14 16:49:14;;;;;;;65.85;28.55;;;8.90;99.90;;;;;;4971720;28;20213;-68
2021/12/14 16:51:42;;;;;;;64.70;28.20;;;8.90;99.90;;;;;;4963455;28;20213;-69
2021/12/14 16:54:12;;;;;;;64.60;29.55;;;8.90;99.90;;;;;;4970294;28;20212;-69
2021/12/14 16:56:40;;;;;;;64.75;31.65;;;8.90;99.90;;;;;;4969595;28;20219;-70
2021/12/14 16:59:12;;;;;;;62.75;28.25;;;8.90;99.90;;;;;;4968293;28;20220;-70
2021/12/14 17:01:39;;;;;;;63.85;28.05;;;8.90;99.90;;;;;;4971319;28;20221;-70
2021/12/14 17:04:06;;;;;;;56.08;27.08;;;8.90;99.90;;;;;;4972055;28;20732;-71
2021/12/14 17:06:36;;;;;;;77.22;35.83;;;8.90;99.90;;;;;;4967263;28;20220;-71
2021/12/14 17:09:07;;;;;;;59.92;29.45;;;8.90;99.90;;;;;;4970761;28;20211;-68
2021/12/14 17:11:37;;;;;;;50.30;26.80;;;8.90;99.90;;;;;;4962546;28;20216;-69
2021/12/14 17:14:07;;;;;;;59.47;28.00;;;8.90;99.90;;;;;;4972990;28;20208;-69
2021/12/14 17:16:41;;;;;;;60.28;27.95;;;8.90;99.90;;;;;;4969958;28;20209;-69
2021/12/14 17:19:13;;;;;;;62.83;30.27;;;8.90;99.90;;;;;;4968532;28;20837;-68
2021/12/14 17:21:42;;;;;;;68.60;31.88;;;8.90;99.90;;;;;;4968833;28;20634;-69
2021/12/14 17:24:11;;;;;;;59.42;27.30;;;8.90;99.90;;;;;;4967090;28;20701;-69
2021/12/14 17:26:39;;;;;;;53.47;27.13;;;8.90;99.90;;;;;;4968463;28;20209;-69
2021/12/14 17:29:08;;;;;;;56.60;26.85;;;8.90;99.90;;;;;;4972981;28;20209;-69
2021/12/14 17:31:37;;;;;;;52.78;25.52;;;8.90;99.90;;;;;;4971853;28;20218;-69
2021/12/14 17:34:06;;;;;;;50.03;25.50;;;8.90;99.90;;;;;;4969183;28;20209;-70
2021/12/14 17:36:35;;;;;;;57.25;30.00;;;8.90;99.90;;;;;;4970896;28;20208;-68
2021/12/14 17:39:12;;;;;;;58.58;27.30;;;8.90;99.90;;;;;;4968524;28;20201;-71
2021/12/14 17:41:40;;;;;;;58.10;29.52;;;8.90;99.90;;;;;;4965710;28;20219;-69
2021/12/14 17:44:12;;;;;;;60.50;25.33;;;8.90;99.90;;;;;;4970378;28;20287;-70
2021/12/14 17:46:41;;;;;;;61.53;33.25;;;8.90;99.90;;;;;;4968877;28;20212;-68
2021/12/14 17:49:11;;;;;;;54.50;25.27;;;8.90;99.90;;;;;;4972613;28;20212;-69
2021/12/14 17:51:38;;;;;;;49.25;27.52;;;8.90;99.90;;;;;;4969599;28;20205;-71
2021/12/14 17:54:07;;;;;;;57.85;28.65;;;8.90;99.90;;;;;;4968191;28;20212;-69
2021/12/14 17:56:33;;;;;;;61.42;31.90;;;8.90;99.90;;;;;;4972468;28;20239;-70
2021/12/14 17:59:01;;;;;;;50.38;26.80;;;8.90;99.90;;;;;;4970179;28;20209;-70
2021/12/14 18:01:27;;;;;;;57.08;24.95;;;8.90;99.90;;;;;;4973803;28;20208;-70
2021/12/14 18:03:56;;;;;;;65.78;31.10;;;8.90;99.90;;;;;;4972385;28;20232;-71
2021/12/14 18:06:25;;;;;;;55.03;30.40;;;8.90;99.90;;;;;;4966308;28;20210;-69
2021/12/14 18:08:54;;;;;;;62.60;31.15;;;8.90;99.90;;;;;;4970794;28;20212;-69
2021/12/14 18:11:26;;;;;;;49.10;26.13;;;8.90;99.90;;;;;;4989212;28;20207;-69
2021/12/14 18:13:58;;;;;;;46.30;24.55;;;8.90;99.90;;;;;;4985132;28;20594;-69
2021/12/14 18:16:36;;;;;;;48.05;27.70;;;8.90;99.90;;;;;;4967670;28;20267;-68
2021/12/14 18:19:05;;;;;;;50.05;22.13;;;8.90;99.90;;;;;;4972224;28;20196;-69